Time;durP1;ratioP1;P1;durP2;ratioP2;P2;SDS_P1;SDS_P2;PMS_P1;PMS_P2;Temp;Humidity;BMP_temperature;BMP_pressure;BME280_temperature;BME280_humidity;BME280_pressure;Samples;Min_cycle;Max_cycle;Signal;HPM_P1;HPM_P2
2021/08/30 00:01:48;;;;;;;28.23;16.45;;;17.10;64.30;;;;;;5048565;28;20032;-73
2021/08/30 00:04:14;;;;;;;22.52;14.18;;;17.10;64.30;;;;;;5049878;28;20036;-74
2021/08/30 00:06:41;;;;;;;32.20;18.02;;;17.10;64.60;;;;;;5050027;28;20017;-74
2021/08/30 00:09:07;;;;;;;20.40;11.63;;;17.10;64.40;;;;;;5049994;28;20071;-74
2021/08/30 00:11:33;;;;;;;23.48;13.80;;;17.10;64.50;;;;;;5050737;28;20106;-74
2021/08/30 00:13:58;;;;;;;14.27;8.18;;;17.00;64.60;;;;;;5047966;28;20079;-74
2021/08/30 00:16:24;;;;;;;14.85;7.78;;;16.90;64.70;;;;;;5049919;28;20032;-74
2021/08/30 00:18:50;;;;;;;15.32;8.57;;;16.90;65.30;;;;;;5048560;28;20032;-74
2021/08/30 00:21:16;;;;;;;14.32;7.55;;;16.90;65.20;;;;;;5049881;28;20522;-74
2021/08/30 00:23:42;;;;;;;8.63;5.40;;;16.90;65.10;;;;;;5051578;28;20072;-74
2021/08/30 00:26:07;;;;;;;10.40;5.63;;;16.90;65.10;;;;;;5050357;28;20036;-74
2021/08/30 00:28:33;;;;;;;8.30;5.32;;;16.90;65.10;;;;;;5049563;28;20508;-75
2021/08/30 00:30:59;;;;;;;9.00;5.40;;;16.80;66.30;;;;;;5049714;28;20037;-73
2021/08/30 00:33:24;;;;;;;10.05;5.53;;;16.80;65.30;;;;;;5049813;28;20108;-73
2021/08/30 00:35:50;;;;;;;11.00;5.68;;;16.80;65.50;;;;;;5050670;28;20508;-74
2021/08/30 00:38:16;;;;;;;6.43;4.00;;;16.80;65.80;;;;;;5051198;28;20071;-74
2021/08/30 00:40:41;;;;;;;6.43;4.43;;;16.80;65.80;;;;;;5048306;28;20131;-73
2021/08/30 00:43:08;;;;;;;5.70;3.80;;;16.70;66.20;;;;;;5049032;28;20037;-73
2021/08/30 00:45:35;;;;;;;6.13;3.80;;;16.70;66.20;;;;;;5048504;28;20028;-74
2021/08/30 00:48:01;;;;;;;6.90;3.60;;;16.70;66.20;;;;;;5049810;28;20025;-74
2021/08/30 00:50:28;;;;;;;4.95;2.97;;;16.70;66.20;;;;;;5050286;28;20087;-74
2021/08/30 00:52:54;;;;;;;5.20;2.88;;;16.60;66.20;;;;;;5047976;28;20044;-74
2021/08/30 00:55:20;;;;;;;5.07;3.22;;;16.60;66.50;;;;;;5049472;28;20402;-74
2021/08/30 00:57:47;;;;;;;6.65;2.50;;;16.50;66.90;;;;;;5051122;28;20036;-74
2021/08/30 01:00:14;;;;;;;5.00;2.85;;;16.60;66.60;;;;;;5053301;28;20056;-73
2021/08/30 01:02:41;;;;;;;4.70;3.00;;;16.60;66.60;;;;;;5055515;28;20087;-74
2021/08/30 01:05:13;;;;;;;5.97;2.78;;;16.60;66.60;;;;;;5053615;28;20036;-74
2021/08/30 01:07:44;;;;;;;3.97;2.42;;;16.50;66.60;;;;;;5051671;28;20053;-74
2021/08/30 01:10:17;;;;;;;4.43;2.45;;;16.50;67.00;;;;;;5053066;28;20029;-74
2021/08/30 01:12:50;;;;;;;;;;;16.50;66.70;;;;;;5053407;28;20566;-74
2021/08/30 01:15:21;;;;;;;5.03;2.35;;;16.50;65.50;;;;;;5038030;28;20011;-74
2021/08/30 01:17:47;;;;;;;4.57;2.50;;;16.50;66.90;;;;;;5053995;28;20390;-74
2021/08/30 01:20:38;;;;;;;4.50;2.40;;;16.40;67.20;;;;;;5053927;28;20111;-74
2021/08/30 01:23:05;;;;;;;4.43;2.50;;;16.40;66.80;;;;;;5028467;28;20037;-74
2021/08/30 01:25:34;;;;;;;5.47;2.30;;;16.40;67.70;;;;;;5029130;28;20041;-74
2021/08/30 01:27:59;;;;;;;3.28;2.20;;;16.30;67.90;;;;;;5030032;28;20048;-74
2021/08/30 01:30:28;;;;;;;3.58;2.00;;;16.30;68.20;;;;;;5018469;28;20026;-74
2021/08/30 01:32:56;;;;;;;3.35;2.20;;;16.30;67.80;;;;;;5016150;28;20021;-75
2021/08/30 01:35:24;;;;;;;6.88;2.47;;;16.40;67.90;;;;;;5027175;28;20041;-73
2021/08/30 01:37:56;;;;;;;3.85;2.38;;;16.30;67.80;;;;;;5020826;28;20033;-74
2021/08/30 01:40:24;;;;;;;5.18;2.55;;;16.30;67.90;;;;;;5023570;28;20033;-74
2021/08/30 01:42:52;;;;;;;4.00;2.33;;;16.30;68.10;;;;;;5010735;28;20048;-74
2021/08/30 01:45:23;;;;;;;4.47;2.33;;;16.30;68.50;;;;;;5031886;28;20033;-75
2021/08/30 01:47:52;;;;;;;5.35;2.80;;;16.30;68.00;;;;;;5031871;28;20045;-73
2021/08/30 01:50:21;;;;;;;3.40;2.30;;;16.20;68.10;;;;;;5019475;28;20026;-74
2021/08/30 01:52:49;;;;;;;4.80;2.70;;;16.20;68.40;;;;;;5003507;28;20032;-73
2021/08/30 02:03:16;;;;;;;6.03;3.08;;;16.10;68.90;;;;;;5052121;28;20087;-74
2021/08/30 02:05:43;;;;;;;4.63;2.40;;;16.10;68.70;;;;;;5050177;28;20028;-74
2021/08/30 02:08:09;;;;;;;4.88;2.38;;;16.10;69.10;;;;;;5050932;28;20029;-74
2021/08/30 02:10:35;;;;;;;5.88;2.70;;;16.10;68.80;;;;;;5049433;28;20021;-74
2021/08/30 02:13:01;;;;;;;4.43;2.30;;;16.00;69.00;;;;;;5051939;28;20025;-74
2021/08/30 02:15:27;;;;;;;4.28;2.28;;;15.90;69.30;;;;;;5051971;28;20025;-74
2021/08/30 02:17:57;;;;;;;5.18;2.50;;;16.00;69.30;;;;;;5052099;28;20417;-74
2021/08/30 02:20:28;;;;;;;4.13;2.38;;;16.00;69.30;;;;;;5048378;28;20044;-74
2021/08/30 02:22:54;;;;;;;3.20;2.08;;;16.00;69.30;;;;;;5050192;28;20025;-74
2021/08/30 02:25:21;;;;;;;4.55;2.60;;;16.00;69.40;;;;;;5051505;28;20054;-75
2021/08/30 02:27:50;;;;;;;4.25;2.40;;;16.00;69.50;;;;;;5051763;28;20099;-74
2021/08/30 02:30:26;;;;;;;4.55;2.30;;;15.90;69.20;;;;;;5051639;28;20029;-74
2021/08/30 02:32:53;;;;;;;4.97;2.30;;;16.00;69.10;;;;;;5052343;28;20559;-74
2021/08/30 02:35:24;;;;;;;4.38;2.53;;;15.90;69.30;;;;;;5051962;28;20084;-74
2021/08/30 02:37:52;;;;;;;5.28;2.33;;;15.90;69.60;;;;;;5049742;28;20482;-75
2021/08/30 02:40:19;;;;;;;4.18;2.08;;;15.90;69.90;;;;;;5051181;28;20017;-74
2021/08/30 02:42:46;;;;;;;3.80;2.17;;;15.90;69.80;;;;;;5051158;28;20048;-75
2021/08/30 02:45:13;;;;;;;4.15;1.95;;;15.90;70.20;;;;;;5051361;28;20053;-74
2021/08/30 02:47:40;;;;;;;3.97;2.45;;;15.80;69.50;;;;;;5052172;28;20036;-74
2021/08/30 02:50:09;;;;;;;4.85;2.28;;;15.80;70.10;;;;;;5050021;28;20547;-74
2021/08/30 02:52:36;;;;;;;4.57;2.10;;;15.80;70.10;;;;;;5050794;28;20024;-74
2021/08/30 02:55:02;;;;;;;3.05;1.88;;;15.80;70.10;;;;;;5049570;28;20408;-75
2021/08/30 02:57:29;;;;;;;4.93;2.28;;;15.80;70.50;;;;;;5049815;28;20021;-74
2021/08/30 02:59:56;;;;;;;4.75;2.08;;;15.80;70.50;;;;;;5051314;28;20029;-74
2021/08/30 03:02:26;;;;;;;3.55;2.30;;;15.80;70.30;;;;;;5040515;28;20035;-74
2021/08/30 03:04:56;;;;;;;3.72;2.13;;;15.90;70.20;;;;;;5049199;28;20142;-74
2021/08/30 03:07:23;;;;;;;3.97;2.00;;;15.90;70.40;;;;;;5042676;28;20020;-75
2021/08/30 03:09:48;;;;;;;3.78;1.90;;;15.80;69.90;;;;;;5039166;28;20028;-74
2021/08/30 03:12:16;;;;;;;3.70;1.88;;;15.80;70.20;;;;;;5050852;28;20076;-74
2021/08/30 03:14:44;;;;;;;4.15;2.00;;;15.80;70.40;;;;;;5050988;28;20374;-74
2021/08/30 03:17:11;;;;;;;4.40;1.80;;;15.80;70.40;;;;;;5050038;28;20490;-74
2021/08/30 03:19:42;;;;;;;3.13;1.80;;;15.80;70.30;;;;;;5050707;28;20017;-74
2021/08/30 03:22:10;;;;;;;2.85;1.67;;;15.80;70.30;;;;;;5047994;28;20055;-74
2021/08/30 03:24:39;;;;;;;4.43;1.83;;;15.90;70.40;;;;;;5050720;28;20025;-74
2021/08/30 03:27:06;;;;;;;5.00;2.10;;;15.80;70.70;;;;;;5049834;28;20022;-74
2021/08/30 03:29:33;;;;;;;5.45;1.75;;;15.80;70.50;;;;;;5050766;28;20130;-74
2021/08/30 03:32:01;;;;;;;2.80;1.77;;;15.70;70.80;;;;;;5052351;28;20029;-74
2021/08/30 03:34:27;;;;;;;4.38;1.80;;;15.80;71.00;;;;;;5050211;28;20051;-74
2021/08/30 03:36:54;;;;;;;4.18;1.92;;;15.80;70.70;;;;;;5049922;28;20020;-74
2021/08/30 03:39:20;;;;;;;5.03;2.08;;;15.70;70.80;;;;;;5050491;28;20017;-74
2021/08/30 03:41:48;;;;;;;6.00;2.05;;;15.70;70.90;;;;;;5051522;28;20055;-74
2021/08/30 03:44:14;;;;;;;3.55;1.80;;;15.70;71.10;;;;;;5051523;28;20402;-74
2021/08/30 03:46:41;;;;;;;3.13;1.60;;;15.80;71.20;;;;;;5050361;28;20025;-74
2021/08/30 03:49:08;;;;;;;3.53;1.70;;;15.80;70.90;;;;;;5050167;28;20029;-74
2021/08/30 03:51:36;;;;;;;4.43;1.80;;;15.80;70.90;;;;;;5049885;28;20033;-75
2021/08/30 03:54:03;;;;;;;3.00;1.60;;;15.80;71.00;;;;;;5049946;28;20029;-74
2021/08/30 03:56:29;;;;;;;3.05;1.67;;;15.90;70.90;;;;;;5051151;28;20021;-75
2021/08/30 03:58:56;;;;;;;3.50;1.70;;;15.90;70.90;;;;;;5050314;28;20213;-74
2021/08/30 04:01:25;;;;;;;3.08;1.52;;;15.90;70.90;;;;;;5050161;28;20017;-74
2021/08/30 04:03:54;;;;;;;3.78;1.75;;;15.90;70.80;;;;;;5049119;28;20078;-74
2021/08/30 04:06:21;;;;;;;3.65;1.63;;;15.90;71.10;;;;;;5047884;28;20798;-74
2021/08/30 04:08:47;;;;;;;6.63;2.08;;;15.90;71.20;;;;;;5051012;28;20064;-73
2021/08/30 04:11:14;;;;;;;4.70;2.08;;;15.90;71.00;;;;;;5050468;28;20029;-74
2021/08/30 04:13:40;;;;;;;3.95;1.60;;;15.90;70.90;;;;;;5047986;28;20029;-74
2021/08/30 04:16:07;;;;;;;4.65;1.63;;;16.00;71.00;;;;;;5047302;28;20040;-74
2021/08/30 04:18:36;;;;;;;3.60;1.60;;;16.00;71.10;;;;;;5043537;28;20025;-74
2021/08/30 04:21:01;;;;;;;3.08;1.60;;;15.90;71.10;;;;;;5049161;28;20033;-74
2021/08/30 04:23:27;;;;;;;3.45;1.77;;;15.90;71.10;;;;;;5044879;28;20029;-75
2021/08/30 04:25:53;;;;;;;4.05;1.70;;;15.90;71.30;;;;;;5048445;28;20493;-74
2021/08/30 04:28:18;;;;;;;4.15;1.88;;;16.00;71.00;;;;;;5049411;28;20025;-74
2021/08/30 04:30:44;;;;;;;5.25;1.92;;;15.90;72.00;;;;;;5049380;28;20025;-74
2021/08/30 04:33:12;;;;;;;2.70;1.80;;;15.90;71.30;;;;;;5050473;28;20032;-74
2021/08/30 04:35:38;;;;;;;4.20;1.55;;;15.90;71.20;;;;;;5051401;28;20025;-74
2021/08/30 04:38:05;;;;;;;4.05;1.48;;;15.90;71.40;;;;;;5053404;28;20482;-74
2021/08/30 04:40:31;;;;;;;5.25;1.58;;;16.00;71.60;;;;;;5053114;28;20567;-74
2021/08/30 04:42:57;;;;;;;5.28;1.67;;;16.00;71.40;;;;;;5052913;28;20041;-74
2021/08/30 04:45:22;;;;;;;2.88;1.40;;;16.00;71.40;;;;;;5051658;28;20402;-74
2021/08/30 04:47:49;;;;;;;4.25;1.67;;;16.00;71.30;;;;;;5053899;28;20374;-74
2021/08/30 04:50:15;;;;;;;4.75;1.50;;;16.00;71.40;;;;;;5053794;28;20482;-74
2021/08/30 04:52:40;;;;;;;3.58;1.88;;;16.00;71.30;;;;;;5052955;28;20123;-75
2021/08/30 04:55:06;;;;;;;5.55;1.85;;;16.00;71.20;;;;;;5052956;28;20033;-74
2021/08/30 04:57:32;;;;;;;4.57;1.75;;;16.00;71.20;;;;;;5052904;28;20052;-74
2021/08/30 04:59:58;;;;;;;2.45;1.58;;;16.00;71.20;;;;;;5052848;28;20068;-73
2021/08/30 05:02:23;;;;;;;4.95;2.03;;;16.10;71.50;;;;;;5054320;28;20035;-74
2021/08/30 05:04:49;;;;;;;4.70;1.60;;;16.10;71.30;;;;;;5052440;28;20021;-73
2021/08/30 05:07:14;;;;;;;4.18;1.73;;;16.10;71.50;;;;;;5052689;28;20025;-74
2021/08/30 05:09:40;;;;;;;3.85;1.40;;;16.10;71.40;;;;;;5052768;28;20060;-74
2021/08/30 05:12:06;;;;;;;4.47;1.83;;;16.00;71.60;;;;;;5052054;28;20037;-72
2021/08/30 05:14:34;;;;;;;2.40;1.50;;;16.00;71.60;;;;;;5053747;28;20037;-73
2021/08/30 05:17:00;;;;;;;3.80;1.90;;;16.00;71.70;;;;;;5051202;28;20025;-74
2021/08/30 05:19:26;;;;;;;4.53;1.88;;;16.00;72.00;;;;;;5052808;28;20029;-74
2021/08/30 05:21:51;;;;;;;3.40;1.67;;;16.00;72.10;;;;;;5052396;28;20021;-74
2021/08/30 05:24:17;;;;;;;4.55;1.77;;;16.00;72.20;;;;;;5050868;28;20052;-74
2021/08/30 05:26:43;;;;;;;4.05;1.40;;;16.00;72.10;;;;;;5054354;28;20147;-74
2021/08/30 05:29:08;;;;;;;4.38;1.63;;;16.00;72.20;;;;;;5051296;28;20033;-72
2021/08/30 05:31:34;;;;;;;4.13;1.48;;;16.00;72.20;;;;;;5051806;28;20078;-75
2021/08/30 05:33:59;;;;;;;4.10;1.80;;;16.00;72.40;;;;;;5051843;28;20027;-73
2021/08/30 05:36:26;;;;;;;4.78;1.88;;;16.00;72.40;;;;;;5052536;28;20029;-75
2021/08/30 05:38:53;;;;;;;4.25;1.75;;;16.00;72.30;;;;;;5052439;28;20564;-75
2021/08/30 05:41:19;;;;;;;3.88;1.67;;;16.00;72.60;;;;;;5053856;28;20430;-75
2021/08/30 05:43:45;;;;;;;3.60;1.60;;;16.10;72.60;;;;;;5051610;28;20080;-75
2021/08/30 05:46:15;;;;;;;4.75;1.92;;;16.10;72.70;;;;;;5051080;28;20108;-74
2021/08/30 05:48:44;;;;;;;2.97;1.70;;;16.10;72.60;;;;;;5052062;28;20435;-75
2021/08/30 05:51:10;;;;;;;3.70;1.73;;;16.10;72.60;;;;;;5036356;28;20024;-75
2021/08/30 05:53:36;;;;;;;7.70;1.67;;;16.10;72.80;;;;;;5053183;28;20468;-75
2021/08/30 05:56:02;;;;;;;2.67;1.50;;;16.10;72.50;;;;;;5049444;28;20557;-74
2021/08/30 05:58:27;;;;;;;3.97;1.70;;;16.20;72.70;;;;;;5063306;28;20524;-75
2021/08/30 06:00:53;;;;;;;5.32;1.70;;;16.20;72.70;;;;;;5061290;28;20059;-75
2021/08/30 06:03:19;;;;;;;4.10;1.58;;;16.20;72.90;;;;;;5050039;28;20060;-74
2021/08/30 06:05:44;;;;;;;3.47;1.85;;;16.20;72.80;;;;;;5047663;28;20113;-74
2021/08/30 06:08:10;;;;;;;3.85;1.48;;;16.20;73.10;;;;;;5049931;28;20032;-73
2021/08/30 06:10:35;;;;;;;5.13;1.88;;;16.20;73.10;;;;;;5049312;28;20111;-75
2021/08/30 06:13:01;;;;;;;4.80;1.80;;;16.20;73.00;;;;;;5051344;28;20033;-74
2021/08/30 06:15:27;;;;;;;5.25;1.60;;;16.20;73.20;;;;;;5064519;28;20040;-73
2021/08/30 06:17:53;;;;;;;4.20;1.58;;;16.30;73.10;;;;;;5051796;28;20029;-75
2021/08/30 06:20:18;;;;;;;4.00;1.88;;;16.30;72.90;;;;;;5052051;28;20090;-75
2021/08/30 06:22:44;;;;;;;2.75;1.42;;;16.30;73.20;;;;;;5047256;28;20389;-75
2021/08/30 06:25:10;;;;;;;3.00;1.48;;;16.30;73.10;;;;;;5049705;28;20029;-75
2021/08/30 06:27:35;;;;;;;4.75;1.80;;;16.40;73.20;;;;;;5050526;28;20511;-75
2021/08/30 06:30:01;;;;;;;4.18;1.60;;;16.40;73.20;;;;;;5051178;28;20025;-75
2021/08/30 06:32:27;;;;;;;4.25;1.83;;;16.40;73.30;;;;;;5052564;28;20032;-73
2021/08/30 06:34:52;;;;;;;4.30;1.65;;;16.50;73.40;;;;;;5050085;28;20456;-74
2021/08/30 06:37:18;;;;;;;4.05;1.67;;;16.50;73.40;;;;;;5050803;28;20025;-72
2021/08/30 06:39:44;;;;;;;5.22;1.95;;;16.60;74.30;;;;;;5049195;28;20401;-75
2021/08/30 06:42:10;;;;;;;6.03;1.63;;;16.60;73.20;;;;;;5049265;28;20048;-75
2021/08/30 06:44:35;;;;;;;4.05;1.50;;;16.70;73.50;;;;;;5052077;28;20024;-75
2021/08/30 06:47:01;;;;;;;4.03;1.70;;;16.70;73.50;;;;;;5050488;28;20032;-72
2021/08/30 06:49:27;;;;;;;5.65;1.60;;;16.70;73.50;;;;;;5050542;28;20485;-74
2021/08/30 06:51:53;;;;;;;5.25;1.88;;;16.80;73.60;;;;;;5045627;28;20029;-74
2021/08/30 06:54:18;;;;;;;5.53;1.90;;;16.80;73.50;;;;;;5050504;28;20037;-74
2021/08/30 06:56:44;;;;;;;3.78;1.50;;;16.80;73.30;;;;;;5050670;28;20033;-75
2021/08/30 06:59:09;;;;;;;4.15;1.80;;;16.90;73.30;;;;;;5050801;28;20025;-74
2021/08/30 07:01:35;;;;;;;4.68;1.38;;;16.90;73.30;;;;;;5046923;28;20029;-74
2021/08/30 07:04:01;;;;;;;4.82;1.70;;;17.00;73.70;;;;;;5053652;28;20104;-71
2021/08/30 07:06:27;;;;;;;4.63;1.95;;;17.10;73.40;;;;;;5044405;28;20498;-71
2021/08/30 07:08:52;;;;;;;7.32;2.08;;;17.20;73.30;;;;;;5041713;28;20029;-71
2021/08/30 07:11:18;;;;;;;3.92;1.98;;;17.30;73.30;;;;;;5052333;28;20024;-70
2021/08/30 07:13:44;;;;;;;6.95;2.00;;;17.30;73.00;;;;;;5049155;28;20051;-71
2021/08/30 07:16:09;;;;;;;4.38;1.90;;;17.30;72.90;;;;;;5047157;28;20028;-71
2021/08/30 07:18:37;;;;;;;4.68;1.80;;;17.20;73.10;;;;;;5038782;28;20033;-70
2021/08/30 07:21:03;;;;;;;4.63;2.00;;;17.20;73.30;;;;;;5046852;28;20033;-71
2021/08/30 07:23:31;;;;;;;4.75;2.17;;;17.20;73.60;;;;;;5047460;28;20036;-71
2021/08/30 07:25:57;;;;;;;4.28;2.00;;;17.20;73.80;;;;;;5038183;28;20022;-71
2021/08/30 07:28:23;;;;;;;6.75;1.80;;;17.20;73.70;;;;;;5046535;28;20060;-70
2021/08/30 07:30:49;;;;;;;4.28;1.75;;;17.30;74.20;;;;;;5047109;28;20495;-76
2021/08/30 07:33:15;;;;;;;6.07;2.70;;;17.30;74.00;;;;;;5048387;28;20056;-73
2021/08/30 07:35:40;;;;;;;8.50;4.35;;;17.40;74.10;;;;;;5048869;28;20091;-71
2021/08/30 07:38:06;;;;;;;6.13;2.40;;;17.40;74.10;;;;;;5046265;28;20029;-73
2021/08/30 07:40:32;;;;;;;4.70;2.10;;;17.50;74.20;;;;;;5043223;28;20033;-75
2021/08/30 07:42:57;;;;;;;5.68;2.17;;;17.60;74.10;;;;;;5036603;28;20069;-74
2021/08/30 07:45:23;;;;;;;5.28;2.08;;;17.60;74.10;;;;;;5049459;28;20103;-76
2021/08/30 07:47:49;;;;;;;5.53;2.10;;;17.60;74.40;;;;;;5034791;28;20032;-73
2021/08/30 07:50:15;;;;;;;5.10;2.28;;;17.60;74.50;;;;;;5046334;28;20021;-75
2021/08/30 07:52:40;;;;;;;4.53;2.30;;;17.70;74.80;;;;;;5046028;28;20024;-74
2021/08/30 07:55:07;;;;;;;4.25;1.70;;;17.70;74.80;;;;;;5045349;28;20045;-73
2021/08/30 07:57:33;;;;;;;5.13;1.85;;;17.70;74.70;;;;;;5033181;28;20510;-76
2021/08/30 07:59:59;;;;;;;6.32;1.98;;;17.80;74.90;;;;;;5036380;28;20068;-78
2021/08/30 08:02:24;;;;;;;4.43;2.00;;;17.80;75.10;;;;;;5050200;28;20436;-78
2021/08/30 08:04:50;;;;;;;3.97;1.80;;;17.90;75.10;;;;;;5048636;28;20029;-77
2021/08/30 08:07:16;;;;;;;3.75;1.58;;;18.10;75.10;;;;;;5046935;28;20017;-77
2021/08/30 08:09:41;;;;;;;3.90;1.65;;;18.20;74.80;;;;;;5049752;28;20472;-76
2021/08/30 08:12:08;;;;;;;2.53;1.60;;;18.40;74.30;;;;;;5048308;28;20029;-79
2021/08/30 08:14:34;;;;;;;3.13;1.38;;;18.50;74.20;;;;;;5052888;28;20245;-73
2021/08/30 08:16:59;;;;;;;3.50;1.65;;;18.50;73.80;;;;;;5043816;28;20028;-78
2021/08/30 08:19:25;;;;;;;4.43;1.70;;;18.50;74.00;;;;;;5049547;28;20547;-76
2021/08/30 08:21:51;;;;;;;3.13;1.60;;;18.50;74.10;;;;;;5038233;28;20033;-81
2021/08/30 08:24:16;;;;;;;4.10;1.88;;;18.50;74.10;;;;;;5048897;28;20075;-77
2021/08/30 08:26:42;;;;;;;3.13;1.52;;;18.60;74.30;;;;;;5050007;28;20036;-77
2021/08/30 08:29:08;;;;;;;2.28;1.52;;;18.70;74.10;;;;;;5048360;28;20092;-75
2021/08/30 08:31:34;;;;;;;4.85;1.70;;;18.90;74.60;;;;;;5049230;28;20025;-84
2021/08/30 08:33:59;;;;;;;3.95;1.60;;;19.20;74.70;;;;;;5042367;28;20037;-73
2021/08/30 08:36:26;;;;;;;3.20;1.60;;;19.70;74.10;;;;;;5048403;28;20059;-73
2021/08/30 08:38:52;;;;;;;2.78;1.60;;;20.00;72.40;;;;;;5047038;28;20042;-73
2021/08/30 08:41:17;;;;;;;3.05;1.55;;;20.20;71.40;;;;;;5049856;28;20040;-73
2021/08/30 08:43:46;;;;;;;2.95;1.60;;;20.20;70.50;;;;;;5048050;28;20124;-73
2021/08/30 08:46:11;;;;;;;3.50;1.45;;;20.30;70.70;;;;;;5045923;28;20588;-73
2021/08/30 08:48:37;;;;;;;3.65;1.50;;;20.50;70.10;;;;;;5047581;28;20111;-73
2021/08/30 08:51:03;;;;;;;2.83;1.20;;;20.40;69.50;;;;;;5030980;28;20071;-73
2021/08/30 08:53:29;;;;;;;8.32;4.25;;;20.20;69.60;;;;;;5046908;28;20064;-73
2021/08/30 08:55:54;;;;;;;5.32;3.95;;;20.20;71.10;;;;;;5044249;28;20517;-73
2021/08/30 08:58:21;;;;;;;4.88;2.17;;;20.50;71.10;;;;;;5038980;28;20017;-73
2021/08/30 09:01:03;;;;;;;2.88;1.70;;;21.10;71.40;;;;;;5036571;28;20029;-73
2021/08/30 09:03:28;;;;;;;4.65;1.60;;;21.50;69.70;;;;;;5034475;28;20051;-73
2021/08/30 09:06:02;;;;;;;3.28;1.77;;;21.40;66.60;;;;;;5033556;28;20450;-73
2021/08/30 09:08:29;;;;;;;2.33;1.52;;;21.20;67.10;;;;;;5035937;28;20044;-73
2021/08/30 09:10:55;;;;;;;2.83;1.25;;;21.30;67.90;;;;;;5035921;28;20030;-73
2021/08/30 09:13:27;;;;;;;3.30;1.95;;;21.60;67.10;;;;;;5036556;28;20379;-73
2021/08/30 09:15:53;;;;;;;3.05;1.63;;;21.80;66.20;;;;;;5034020;28;20425;-73
2021/08/30 09:18:19;;;;;;;2.63;1.48;;;22.20;64.00;;;;;;5042947;28;20060;-73
2021/08/30 09:20:44;;;;;;;3.60;1.45;;;22.40;64.50;;;;;;5037579;28;20079;-73
2021/08/30 09:23:15;;;;;;;2.75;1.10;;;22.50;63.70;;;;;;5050495;28;20025;-73
2021/08/30 09:25:42;;;;;;;3.10;1.30;;;22.40;63.10;;;;;;5050721;28;20517;-73
2021/08/30 09:28:08;;;;;;;2.40;1.20;;;22.10;62.10;;;;;;5047843;28;20437;-73
2021/08/30 09:30:33;;;;;;;1.90;1.05;;;21.80;62.90;;;;;;5036660;28;20017;-73
2021/08/30 09:33:00;;;;;;;2.10;1.63;;;21.50;63.80;;;;;;5051540;28;20060;-72
2021/08/30 09:35:26;;;;;;;2.20;1.42;;;21.40;65.20;;;;;;5039080;28;20087;-72
2021/08/30 09:37:52;;;;;;;3.10;1.48;;;21.20;65.60;;;;;;5044601;28;20381;-72
2021/08/30 09:40:21;;;;;;;2.97;1.60;;;21.10;66.10;;;;;;5047600;28;20477;-72
2021/08/30 09:42:52;;;;;;;3.20;1.65;;;21.00;66.30;;;;;;5050397;28;20033;-73
2021/08/30 09:45:20;;;;;;;4.05;1.55;;;20.80;66.50;;;;;;5036628;28;20554;-73
2021/08/30 09:47:55;;;;;;;5.53;1.27;;;20.80;67.20;;;;;;5050446;28;20090;-72
2021/08/30 09:50:33;;;;;;;3.03;1.33;;;21.00;68.40;;;;;;5038780;28;20025;-72
2021/08/30 09:53:01;;;;;;;2.80;1.40;;;21.20;67.80;;;;;;5045950;28;20041;-72
2021/08/30 09:55:27;;;;;;;2.25;1.35;;;21.20;66.90;;;;;;5047238;28;20520;-72
2021/08/30 09:57:54;;;;;;;2.00;1.30;;;21.10;66.90;;;;;;5049409;28;20103;-72
2021/08/30 10:00:21;;;;;;;1.73;0.90;;;21.10;67.00;;;;;;5036155;28;20048;-72
2021/08/30 10:02:48;;;;;;;2.00;1.00;;;21.20;67.70;;;;;;5050618;28;20032;-73
2021/08/30 10:05:17;;;;;;;1.48;0.98;;;21.50;67.60;;;;;;5048402;28;20017;-73
2021/08/30 10:07:46;;;;;;;2.40;0.80;;;21.80;66.50;;;;;;5051057;28;20036;-73
2021/08/30 10:10:14;;;;;;;2.15;0.90;;;21.90;66.50;;;;;;5048331;28;20577;-72
2021/08/30 10:12:40;;;;;;;1.65;0.70;;;22.20;66.10;;;;;;5048970;28;20056;-72
2021/08/30 10:15:07;;;;;;;1.55;0.50;;;22.30;64.80;;;;;;5047080;28;20036;-72
2021/08/30 10:17:34;;;;;;;1.02;0.60;;;22.10;64.00;;;;;;5050173;28;20036;-72
2021/08/30 10:20:03;;;;;;;1.75;0.70;;;21.90;64.60;;;;;;5048815;28;20112;-72
2021/08/30 10:22:28;;;;;;;1.17;0.80;;;21.70;64.90;;;;;;5049423;28;20017;-72
2021/08/30 10:24:54;;;;;;;0.98;0.60;;;21.60;66.10;;;;;;5046278;28;20037;-72
2021/08/30 10:27:33;;;;;;;1.85;0.63;;;21.60;66.30;;;;;;5043447;28;20498;-72
2021/08/30 10:30:11;;;;;;;1.00;0.65;;;21.60;66.50;;;;;;5048970;28;20021;-72
2021/08/30 10:32:38;;;;;;;1.35;0.95;;;21.60;66.40;;;;;;5046461;28;20028;-73
2021/08/30 10:35:22;;;;;;;1.02;0.70;;;21.80;66.60;;;;;;5047713;28;20068;-72
2021/08/30 10:38:02;;;;;;;2.03;0.82;;;21.90;66.50;;;;;;5044772;28;20025;-67
2021/08/30 10:40:33;;;;;;;3.00;1.20;;;22.00;64.90;;;;;;5046423;28;20559;-67
2021/08/30 10:43:13;;;;;;;2.00;1.00;;;22.20;67.00;;;;;;5049150;28;20175;-67
2021/08/30 10:45:58;;;;;;;1.00;0.77;;;22.50;66.10;;;;;;5044706;28;20088;-66
2021/08/30 10:48:34;;;;;;;0.82;0.70;;;22.50;64.40;;;;;;5041373;28;20056;-66
2021/08/30 10:51:11;;;;;;;1.00;0.90;;;22.40;64.30;;;;;;5050579;28;20048;-67
2021/08/30 10:53:37;;;;;;;2.30;1.58;;;22.30;64.10;;;;;;5038509;28;20036;-67
2021/08/30 10:56:07;;;;;;;2.03;0.80;;;22.00;64.30;;;;;;5044039;28;20037;-62
2021/08/30 10:58:33;;;;;;;2.95;2.00;;;21.90;64.20;;;;;;5044317;28;20351;-64
2021/08/30 11:01:10;;;;;;;2.20;1.30;;;21.60;64.70;;;;;;5044660;28;20159;-64
2021/08/30 11:03:36;;;;;;;2.22;1.33;;;21.40;65.20;;;;;;5035979;28;20032;-64
2021/08/30 11:06:10;;;;;;;1.50;1.30;;;21.30;65.40;;;;;;5034056;28;20037;-65
2021/08/30 11:08:38;;;;;;;2.60;1.40;;;21.10;65.80;;;;;;5048453;28;20389;-65
2021/08/30 11:11:11;;;;;;;1.95;1.10;;;21.00;66.60;;;;;;5036054;28;20041;-65
2021/08/30 11:13:38;;;;;;;2.08;1.00;;;21.10;66.60;;;;;;5041835;28;20035;-65
2021/08/30 11:16:16;;;;;;;1.67;1.15;;;21.20;66.50;;;;;;5045698;28;20029;-65
2021/08/30 11:18:52;;;;;;;2.10;1.30;;;21.60;68.50;;;;;;5052007;28;20032;-64
2021/08/30 11:21:37;;;;;;;1.70;1.10;;;21.90;66.90;;;;;;5034046;28;20513;-66
2021/08/30 11:24:04;;;;;;;1.48;1.02;;;22.10;65.90;;;;;;5049574;28;20078;-64
2021/08/30 11:26:30;;;;;;;2.17;0.95;;;22.10;64.60;;;;;;5036506;28;20144;-65
2021/08/30 11:29:02;;;;;;;2.45;1.00;;;22.00;65.10;;;;;;5037374;28;20104;-65
2021/08/30 11:31:30;;;;;;;1.58;1.08;;;21.80;64.50;;;;;;5037560;28;20065;-64
2021/08/30 11:33:56;;;;;;;2.15;0.98;;;21.70;64.70;;;;;;5035047;28;20532;-64
2021/08/30 11:36:22;;;;;;;1.63;1.00;;;21.60;64.90;;;;;;5047635;28;20542;-64
2021/08/30 11:38:56;;;;;;;2.10;1.10;;;21.50;64.80;;;;;;5038908;28;20021;-64
2021/08/30 11:41:22;;;;;;;3.05;1.05;;;21.40;65.20;;;;;;5035994;28;20399;-71
2021/08/30 11:43:49;;;;;;;1.98;1.02;;;21.30;64.80;;;;;;5042583;28;20036;-69
2021/08/30 11:46:15;;;;;;;1.75;1.00;;;21.20;64.90;;;;;;5046212;28;20032;-69
2021/08/30 11:48:41;;;;;;;3.03;1.13;;;21.10;65.60;;;;;;5049477;28;20417;-69
2021/08/30 11:51:07;;;;;;;2.22;0.90;;;21.10;65.50;;;;;;5048740;28;20025;-71
2021/08/30 11:53:34;;;;;;;1.92;1.10;;;21.00;66.00;;;;;;5051549;28;20512;-70
2021/08/30 11:56:00;;;;;;;2.00;0.98;;;21.00;66.30;;;;;;5037993;28;20048;-70
2021/08/30 11:58:31;;;;;;;1.48;1.08;;;21.00;66.40;;;;;;5042319;28;20433;-71
2021/08/30 12:01:07;;;;;;;1.83;1.10;;;21.10;66.70;;;;;;5044651;28;20108;-70
2021/08/30 12:03:45;;;;;;;1.25;0.93;;;21.10;65.90;;;;;;5045554;28;20037;-69
2021/08/30 12:06:19;;;;;;;1.58;1.10;;;21.20;66.10;;;;;;5033621;28;20026;-71
2021/08/30 12:08:49;;;;;;;1.92;1.20;;;21.50;63.60;;;;;;5047515;28;20035;-72
2021/08/30 12:11:15;;;;;;;1.88;1.00;;;21.50;63.30;;;;;;5048364;28;20082;-72
2021/08/30 12:16:24;;;;;;;1.60;1.00;;;21.60;63.00;;;;;;5044456;28;20047;-72
2021/08/30 12:18:50;;;;;;;3.22;1.23;;;21.50;63.10;;;;;;5044960;28;20401;-72
2021/08/30 12:21:31;;;;;;;1.27;1.15;;;21.40;62.70;;;;;;5070921;28;20033;-72
2021/08/30 12:23:57;;;;;;;1.55;1.10;;;21.20;62.20;;;;;;5039969;28;20116;-72
2021/08/30 12:26:23;;;;;;;1.60;1.20;;;21.20;62.20;;;;;;5047553;28;20108;-71
2021/08/30 12:28:54;;;;;;;1.77;1.25;;;21.10;61.90;;;;;;5045279;28;20566;-72
2021/08/30 12:31:24;;;;;;;2.28;1.20;;;21.10;62.30;;;;;;5043971;28;20398;-72
2021/08/30 12:34:09;;;;;;;2.08;1.17;;;21.10;61.90;;;;;;5045649;28;20040;-72
2021/08/30 12:36:36;;;;;;;3.00;1.00;;;21.10;61.70;;;;;;5034432;28;20074;-72
2021/08/30 12:39:04;;;;;;;1.52;1.10;;;21.10;62.50;;;;;;5032103;28;20596;-72
2021/08/30 12:41:30;;;;;;;2.05;1.02;;;21.30;62.50;;;;;;5034526;28;20091;-71
2021/08/30 12:43:56;;;;;;;1.65;0.80;;;21.40;62.70;;;;;;5035416;28;20498;-72
2021/08/30 12:46:22;;;;;;;1.65;1.30;;;21.60;62.20;;;;;;5043800;28;20021;-72
2021/08/30 12:48:48;;;;;;;2.60;1.30;;;21.90;62.00;;;;;;5045266;28;20026;-72
2021/08/30 12:51:14;;;;;;;2.08;1.30;;;22.20;61.00;;;;;;5047820;28;20083;-70
2021/08/30 12:53:40;;;;;;;1.35;1.00;;;22.70;61.30;;;;;;5036660;28;20025;-70
2021/08/30 12:56:06;;;;;;;3.05;1.17;;;22.80;58.60;;;;;;5039791;28;20053;-72
2021/08/30 12:58:32;;;;;;;1.60;1.20;;;22.70;58.60;;;;;;5041989;28;20029;-72